Time;durP1;ratioP1;P1;durP2;ratioP2;P2;SDS_P1;SDS_P2;PMS_P1;PMS_P2;Temp;Humidity;BMP_temperature;BMP_pressure;BME280_temperature;BME280_humidity;BME280_pressure;Samples;Min_cycle;Max_cycle;Signal;HPM_P1;HPM_P2
2023/05/06 00:00:22;;;;;;;5.18;3.40;;;;;;;21.34;57.22;101071.34;5035703;28;20050;-55
2023/05/06 00:02:49;;;;;;;5.15;3.45;;;;;;;21.33;57.07;101078.56;5035474;28;20045;-56
2023/05/06 00:05:17;;;;;;;7.82;3.10;;;;;;;21.34;56.97;101076.72;5035378;28;20045;-56
2023/05/06 00:07:47;;;;;;;5.72;3.72;;;;;;;21.33;57.11;101073.19;5035800;28;20056;-56
2023/05/06 00:10:15;;;;;;;4.75;3.85;;;;;;;21.33;57.11;101064.25;5034787;28;20056;-55
2023/05/06 00:12:43;;;;;;;6.35;3.22;;;;;;;21.33;57.17;101066.94;5034651;28;20049;-55
2023/05/06 00:15:10;;;;;;;5.63;3.63;;;;;;;21.32;57.03;101066.09;5034943;28;20045;-55
2023/05/06 00:17:38;;;;;;;6.07;3.50;;;;;;;21.32;57.20;101059.84;5035214;28;20049;-55
2023/05/06 00:20:06;;;;;;;3.75;3.05;;;;;;;21.32;57.13;101071.47;5035134;28;20049;-55
2023/05/06 00:22:33;;;;;;;4.78;3.70;;;;;;;21.33;57.14;101062.41;5035119;28;20045;-55
2023/05/06 00:25:01;;;;;;;4.18;3.30;;;;;;;21.33;57.17;101064.25;5034919;28;20057;-55
2023/05/06 00:27:28;;;;;;;4.22;3.50;;;;;;;21.33;57.18;101061.56;5035010;28;20387;-55
2023/05/06 00:29:57;;;;;;;4.20;3.80;;;;;;;21.32;57.17;101070.59;5035007;28;20045;-55
2023/05/06 00:32:24;;;;;;;4.20;3.17;;;;;;;21.31;57.29;101061.69;5034951;28;20049;-55
2023/05/06 00:34:51;;;;;;;6.10;3.35;;;;;;;21.32;57.20;101062.53;5034846;28;20045;-55
2023/05/06 00:37:18;;;;;;;6.65;3.63;;;;;;;21.32;57.14;101054.44;5033525;28;20062;-55
2023/05/06 00:39:46;;;;;;;5.32;4.10;;;;;;;21.32;57.14;101054.44;5034607;28;20037;-55
2023/05/06 00:42:13;;;;;;;5.40;3.78;;;;;;;21.31;57.12;101059.00;5034725;28;20045;-55
2023/05/06 00:44:40;;;;;;;6.95;3.92;;;;;;;21.31;57.27;101050.03;5034667;28;20410;-55
2023/05/06 00:47:08;;;;;;;5.07;3.95;;;;;;;21.31;57.25;101052.72;5034660;28;20045;-55
2023/05/06 00:49:35;;;;;;;8.23;3.80;;;;;;;21.31;57.18;101063.50;5034477;28;20049;-55
2023/05/06 00:52:03;;;;;;;5.70;3.97;;;;;;;21.31;57.32;101055.41;5033741;28;20053;-55
2023/05/06 00:54:30;;;;;;;4.47;3.33;;;;;;;21.31;57.31;101050.03;5034393;28;20041;-55
2023/05/06 00:56:58;;;;;;;4.70;3.75;;;;;;;21.30;57.33;101048.34;5034448;28;20476;-55
2023/05/06 00:59:25;;;;;;;8.18;3.55;;;;;;;21.31;57.22;101055.41;5034526;28;20042;-55
2023/05/06 01:01:53;;;;;;;6.03;3.33;;;;;;;21.30;57.27;101056.41;5033000;28;20503;-55
2023/05/06 01:04:22;;;;;;;6.63;3.05;;;;;;;21.30;57.32;101054.56;5034103;28;20060;-55
2023/05/06 01:07:12;;;;;;;5.13;3.30;;;;;;;21.30;57.30;101048.34;5034206;28;20053;-56
2023/05/06 01:09:56;;;;;;;7.32;3.88;;;;;;;21.31;57.11;101058.09;5034010;28;20041;-56
2023/05/06 01:12:38;;;;;;;5.95;3.63;;;;;;;21.30;57.42;101051.03;5034142;28;20053;-56
2023/05/06 01:15:12;;;;;;;3.63;2.85;;;;;;;21.29;57.36;101052.88;5032598;28;20060;-55
2023/05/06 01:17:44;;;;;;;5.30;3.42;;;;;;;21.29;57.50;101047.50;5034074;28;20073;-55
2023/05/06 01:20:12;;;;;;;3.72;2.95;;;;;;;21.30;57.51;101056.41;5034187;28;20045;-56
2023/05/06 01:22:40;;;;;;;5.80;3.40;;;;;;;21.29;57.51;101055.56;5033601;28;20046;-56
2023/05/06 01:25:17;;;;;;;5.13;3.35;;;;;;;21.29;57.48;101054.72;5033913;28;20053;-56
2023/05/06 01:27:45;;;;;;;6.18;3.28;;;;;;;21.28;57.45;101058.41;5032841;28;20053;-55
2023/05/06 01:30:15;;;;;;;4.90;3.17;;;;;;;21.28;57.51;101048.47;5032533;28;20041;-55
2023/05/06 01:33:04;;;;;;;5.63;3.13;;;;;;;21.29;57.58;101052.88;5033812;28;20468;-55
2023/05/06 01:36:07;;;;;;;7.97;3.65;;;;;;;21.28;57.62;101056.56;5033770;28;20069;-55
2023/05/06 01:38:56;;;;;;;4.03;2.95;;;;;;;21.27;57.49;101052.19;5034941;28;20049;-55
2023/05/06 01:41:25;;;;;;;5.90;3.72;;;;;;;21.28;57.55;101051.19;5034431;28;20052;-55
2023/05/06 01:43:53;;;;;;;3.97;2.97;;;;;;;21.28;57.45;101050.34;5033892;28;20052;-55
2023/05/06 01:46:23;;;;;;;4.30;3.20;;;;;;;21.28;57.37;101042.25;5051225;28;20061;-55
2023/05/06 01:48:54;;;;;;;6.03;3.55;;;;;;;21.28;57.54;101047.63;5034731;28;20048;-55
2023/05/06 01:51:22;;;;;;;3.63;3.00;;;;;;;21.28;57.54;101044.94;5051176;28;20044;-55
2023/05/06 01:53:50;;;;;;;6.63;2.78;;;;;;;21.28;57.58;101053.88;5051238;28;20498;-55
2023/05/06 01:56:17;;;;;;;5.60;3.55;;;;;;;21.28;57.63;101047.63;5035155;28;20060;-55
2023/05/06 01:58:44;;;;;;;5.25;3.25;;;;;;;21.28;57.67;101050.34;5034808;28;20053;-55
2023/05/06 02:01:11;;;;;;;4.10;2.95;;;;;;;21.27;57.71;101046.78;5051331;28;20053;-55
2023/05/06 02:03:39;;;;;;;6.68;3.30;;;;;;;21.27;57.63;101040.53;5050775;28;20056;-55
2023/05/06 02:06:07;;;;;;;7.10;3.80;;;;;;;21.27;57.71;101041.41;5034699;28;20515;-55
2023/05/06 02:08:39;;;;;;;5.30;3.30;;;;;;;21.27;57.73;101052.19;5050964;28;20390;-55
2023/05/06 02:11:08;;;;;;;6.32;4.03;;;;;;;21.27;57.79;101043.22;5034105;28;20056;-55
2023/05/06 02:13:35;;;;;;;3.97;3.30;;;;;;;21.27;57.76;101046.78;5030903;28;20061;-55
2023/05/06 02:16:04;;;;;;;6.80;3.47;;;;;;;21.27;57.53;101045.91;5031956;28;20049;-55
2023/05/06 02:18:32;;;;;;;4.97;3.17;;;;;;;21.28;57.75;101036.88;5033268;28;20041;-55
2023/05/06 02:20:59;;;;;;;3.80;2.97;;;;;;;21.27;57.89;101037.84;5032147;28;20045;-55
2023/05/06 02:23:27;;;;;;;4.93;3.70;;;;;;;21.27;57.69;101033.31;5033273;28;20044;-55
2023/05/06 02:25:56;;;;;;;6.55;3.28;;;;;;;21.27;57.86;101037.84;5033124;28;20056;-55
2023/05/06 02:28:24;;;;;;;4.68;3.05;;;;;;;21.26;57.80;101039.69;5033167;28;20041;-55
2023/05/06 02:30:56;;;;;;;4.72;3.10;;;;;;;21.27;57.83;101040.53;5033146;28;20049;-55
2023/05/06 02:33:24;;;;;;;6.60;3.50;;;;;;;21.26;57.85;101030.75;5033210;28;20060;-55
2023/05/06 02:35:51;;;;;;;6.70;3.63;;;;;;;21.26;57.89;101037.00;5036447;28;20045;-56
2023/05/06 02:38:18;;;;;;;4.25;3.50;;;;;;;21.26;57.74;101033.44;5035770;28;20369;-55
2023/05/06 02:40:45;;;;;;;5.97;3.72;;;;;;;21.24;57.72;101029.06;5037001;28;20514;-55
2023/05/06 02:43:13;;;;;;;4.25;3.45;;;;;;;21.26;57.83;101036.13;5035651;28;20049;-55
2023/05/06 02:45:40;;;;;;;4.97;2.88;;;;;;;21.26;57.72;101033.44;5035570;28;20392;-55
2023/05/06 02:48:07;;;;;;;6.20;3.63;;;;;;;21.25;57.74;101038.00;5036872;28;20045;-55
2023/05/06 02:50:36;;;;;;;5.28;3.53;;;;;;;21.25;57.84;101040.69;5036927;28;20487;-55
2023/05/06 02:53:03;;;;;;;3.63;3.22;;;;;;;21.26;57.75;101038.84;5036671;28;20506;-55
2023/05/06 02:55:30;;;;;;;4.55;2.88;;;;;;;21.25;57.79;101040.69;5036919;28;20376;-55
2023/05/06 02:57:58;;;;;;;5.45;3.28;;;;;;;21.24;57.91;101037.13;5035675;28;20053;-55
2023/05/06 03:00:25;;;;;;;4.70;3.72;;;;;;;21.24;57.88;101029.06;5036674;28;20046;-55
2023/05/06 03:02:52;;;;;;;4.68;3.28;;;;;;;21.24;57.97;101029.06;5035168;28;20057;-55
2023/05/06 03:05:20;;;;;;;6.20;3.72;;;;;;;21.24;57.97;101031.75;5035113;28;20072;-55
2023/05/06 03:07:47;;;;;;;6.00;3.15;;;;;;;21.25;57.93;101038.00;5035150;28;20053;-55
2023/05/06 03:10:15;;;;;;;3.80;3.17;;;;;;;21.25;57.86;101038.00;5034997;28;20057;-55
2023/05/06 03:12:42;;;;;;;4.57;3.45;;;;;;;21.24;57.91;101039.84;5034831;28;20060;-55
2023/05/06 03:15:10;;;;;;;5.35;3.63;;;;;;;21.24;57.83;101038.97;5036222;28;20049;-55
2023/05/06 03:17:38;;;;;;;4.65;3.80;;;;;;;21.23;57.79;101035.44;5034978;28;20053;-55
2023/05/06 03:20:07;;;;;;;3.58;3.08;;;;;;;21.23;57.83;101038.13;5034812;28;20049;-56
2023/05/06 03:22:37;;;;;;;5.35;4.20;;;;;;;21.23;57.94;101035.44;5035216;28;20053;-55
2023/05/06 03:25:05;;;;;;;3.70;3.03;;;;;;;21.23;57.98;101037.28;5035066;28;20056;-55
2023/05/06 03:27:34;;;;;;;6.53;3.63;;;;;;;21.23;57.91;101040.81;5035041;28;20504;-56
2023/05/06 03:30:09;;;;;;;7.72;3.13;;;;;;;21.22;57.97;101033.72;5034663;28;20060;-55
2023/05/06 03:32:37;;;;;;;4.32;3.17;;;;;;;21.22;57.81;101036.41;5034577;28;20053;-55
2023/05/06 03:35:10;;;;;;;5.15;3.25;;;;;;;21.23;57.82;101035.44;5034635;28;20054;-55
2023/05/06 03:37:39;;;;;;;5.95;3.35;;;;;;;21.22;57.88;101036.41;5034669;28;20077;-56
2023/05/06 03:40:08;;;;;;;3.90;3.42;;;;;;;21.23;57.92;101027.38;5034648;28;20042;-55
2023/05/06 03:42:36;;;;;;;4.15;3.15;;;;;;;21.23;57.86;101035.44;5034931;28;20053;-55
2023/05/06 03:45:05;;;;;;;4.35;3.58;;;;;;;21.22;57.88;101038.25;5034416;28;20053;-55
2023/05/06 03:47:33;;;;;;;5.13;3.80;;;;;;;21.21;57.81;101042.78;5034280;28;20519;-55
2023/05/06 03:50:03;;;;;;;4.72;3.38;;;;;;;21.22;57.67;101040.94;5034245;28;20056;-55
2023/05/06 03:52:32;;;;;;;3.92;3.05;;;;;;;21.21;57.73;101048.19;5033934;28;20054;-55
2023/05/06 03:55:00;;;;;;;4.40;3.03;;;;;;;21.21;57.66;101042.78;5034251;28;20053;-56
2023/05/06 03:57:29;;;;;;;4.15;3.20;;;;;;;21.21;57.69;101050.88;5034143;28;20061;-55
2023/05/06 03:59:57;;;;;;;5.32;3.00;;;;;;;21.22;57.67;101043.66;5034514;28;20041;-55
2023/05/06 04:02:28;;;;;;;4.75;3.08;;;;;;;21.23;57.71;101039.97;5034005;28;20052;-55
2023/05/06 04:04:56;;;;;;;5.13;3.63;;;;;;;21.23;57.87;101046.22;5034087;28;20057;-55
2023/05/06 04:07:23;;;;;;;6.20;3.10;;;;;;;21.22;57.91;101047.19;5035377;28;20053;-55
2023/05/06 04:09:51;;;;;;;4.38;3.38;;;;;;;21.22;57.95;101051.72;5035186;28;20460;-55
2023/05/06 04:12:18;;;;;;;8.13;4.00;;;;;;;21.22;57.92;101059.78;5035230;28;20514;-55
2023/05/06 04:14:47;;;;;;;4.78;3.22;;;;;;;21.21;57.90;101056.25;5034047;28;20060;-55
2023/05/06 04:17:14;;;;;;;5.00;3.60;;;;;;;21.22;57.92;101059.78;5033774;28;20057;-55
2023/05/06 04:19:43;;;;;;;6.10;3.40;;;;;;;21.22;57.98;101057.09;5033649;28;20065;-55
2023/05/06 04:22:10;;;;;;;5.15;3.17;;;;;;;21.21;57.88;101052.72;5035107;28;20399;-56
2023/05/06 04:24:37;;;;;;;6.03;3.72;;;;;;;21.20;57.79;101059.94;5033712;28;20053;-55
2023/05/06 04:27:05;;;;;;;5.45;2.70;;;;;;;21.20;57.73;101053.72;5034937;28;20407;-56
2023/05/06 04:29:33;;;;;;;5.82;3.22;;;;;;;21.20;57.83;101068.03;5033528;28;20387;-56
2023/05/06 04:32:03;;;;;;;5.75;3.60;;;;;;;21.19;57.72;101057.41;5033451;28;20515;-55
2023/05/06 04:34:35;;;;;;;4.70;3.58;;;;;;;21.19;57.71;101058.25;5017477;28;20053;-55
2023/05/06 04:37:04;;;;;;;6.28;3.40;;;;;;;21.19;57.85;101060.09;5033515;28;20065;-56
2023/05/06 04:39:58;;;;;;;5.70;3.17;;;;;;;21.19;57.71;101060.09;5034450;28;20057;-56
2023/05/06 04:42:26;;;;;;;5.75;3.45;;;;;;;21.19;57.70;101065.47;5033313;28;20045;-55
2023/05/06 04:45:04;;;;;;;4.07;3.10;;;;;;;21.19;57.84;101066.31;5033284;28;20045;-56
2023/05/06 04:47:34;;;;;;;4.65;3.63;;;;;;;21.18;57.78;101070.00;5032984;28;20053;-56
2023/05/06 04:50:03;;;;;;;4.25;3.10;;;;;;;21.19;57.69;101068.19;5034997;28;20057;-55
2023/05/06 04:52:31;;;;;;;5.32;3.30;;;;;;;21.17;57.60;101076.38;5034445;28;20053;-55
2023/05/06 04:54:58;;;;;;;5.13;3.33;;;;;;;21.18;57.61;101077.22;5033117;28;20072;-55
2023/05/06 04:57:25;;;;;;;5.03;3.53;;;;;;;21.17;57.69;101076.38;5033880;28;20053;-56
2023/05/06 04:59:54;;;;;;;4.97;3.35;;;;;;;21.18;57.59;101067.28;5034410;28;20068;-56
2023/05/06 05:02:22;;;;;;;5.50;3.55;;;;;;;21.17;57.64;101072.84;5032958;28;20076;-56
2023/05/06 05:04:50;;;;;;;5.03;3.50;;;;;;;21.18;57.62;101077.22;5032743;28;20053;-55
2023/05/06 05:07:18;;;;;;;6.15;3.55;;;;;;;21.18;57.60;101074.53;5032508;28;20056;-56
2023/05/06 05:09:45;;;;;;;5.80;3.08;;;;;;;21.18;57.53;101074.53;5032925;28;20060;-55
2023/05/06 05:12:13;;;;;;;4.07;3.35;;;;;;;21.18;57.59;101074.53;5032972;28;20045;-56
2023/05/06 05:14:46;;;;;;;4.65;3.03;;;;;;;21.17;57.54;101073.69;5032474;28;20056;-55
2023/05/06 05:17:14;;;;;;;4.60;3.42;;;;;;;21.18;57.54;101078.06;5032676;28;20054;-56
2023/05/06 05:19:42;;;;;;;3.58;2.90;;;;;;;21.18;57.50;101091.53;5032743;28;20064;-56
2023/05/06 05:22:10;;;;;;;4.65;3.17;;;;;;;21.18;57.47;101080.75;5032618;28;20376;-56
2023/05/06 05:24:38;;;;;;;6.30;3.08;;;;;;;21.19;57.52;101087.03;5034400;28;20068;-56
2023/05/06 05:27:06;;;;;;;6.50;3.42;;;;;;;21.19;57.46;101082.47;5033803;28;20049;-56
2023/05/06 05:29:34;;;;;;;3.95;2.85;;;;;;;21.20;57.30;101088.72;5032762;28;20057;-56
2023/05/06 05:32:05;;;;;;;3.95;2.85;;;;;;;21.20;57.42;101084.19;5032434;28;20056;-56
2023/05/06 05:34:32;;;;;;;6.32;3.10;;;;;;;21.20;57.49;101089.56;5033795;28;20052;-56
2023/05/06 05:37:00;;;;;;;4.25;2.58;;;;;;;21.20;57.47;101089.56;5033803;28;20061;-56
2023/05/06 05:39:29;;;;;;;3.78;2.88;;;;;;;21.20;57.36;101086.88;5032149;28;20053;-56
2023/05/06 05:41:57;;;;;;;4.38;2.70;;;;;;;21.20;57.41;101096.78;5032354;28;20060;-56
2023/05/06 05:44:25;;;;;;;5.75;2.75;;;;;;;21.20;57.37;101094.94;5032283;28;20425;-56
2023/05/06 05:46:53;;;;;;;4.15;2.65;;;;;;;21.21;57.35;101095.78;5032294;28;20411;-56
2023/05/06 05:49:23;;;;;;;3.60;2.80;;;;;;;21.21;57.39;101093.09;5032142;28;20045;-56
2023/05/06 05:51:52;;;;;;;5.70;2.92;;;;;;;21.21;57.37;101096.66;5032133;28;20483;-55
2023/05/06 05:54:21;;;;;;;5.43;3.05;;;;;;;21.21;57.42;101093.94;5032334;28;20060;-55
2023/05/06 05:56:49;;;;;;;3.83;2.78;;;;;;;21.20;57.36;101102.19;5032079;28;20060;-56
2023/05/06 05:59:16;;;;;;;3.70;2.65;;;;;;;21.19;57.36;101093.25;5031652;28;20053;-56
2023/05/06 06:01:46;;;;;;;3.85;2.72;;;;;;;21.20;57.39;101096.78;5032169;28;20054;-55
2023/05/06 06:04:14;;;;;;;4.07;2.88;;;;;;;21.20;57.33;101104.88;5032402;28;20049;-55
2023/05/06 06:06:42;;;;;;;3.65;2.70;;;;;;;21.19;57.34;101101.34;5032105;28;20058;-56
2023/05/06 06:09:10;;;;;;;4.03;2.70;;;;;;;21.21;57.33;101093.94;5032655;28;20053;-55
2023/05/06 06:11:38;;;;;;;3.53;2.50;;;;;;;21.21;57.37;101110.09;5036216;28;20507;-56
2023/05/06 06:14:06;;;;;;;3.67;2.75;;;;;;;21.20;57.40;101105.72;5036016;28;20064;-55
2023/05/06 06:16:35;;;;;;;4.30;2.45;;;;;;;21.20;57.34;101108.41;5036410;28;20542;-56
2023/05/06 06:19:03;;;;;;;4.72;2.50;;;;;;;21.21;57.27;101107.41;5035908;28;20054;-56
2023/05/06 06:21:31;;;;;;;5.32;3.15;;;;;;;21.21;57.24;101104.72;5036066;28;20522;-56
2023/05/06 06:23:59;;;;;;;3.72;2.50;;;;;;;21.23;57.25;101107.28;5036131;28;20056;-56
2023/05/06 06:26:26;;;;;;;6.22;3.63;;;;;;;21.25;57.62;101113.38;5035852;28;20053;-56
2023/05/06 06:28:53;;;;;;;3.67;3.17;;;;;;;21.25;57.50;101108.00;5036452;28;20049;-56
2023/05/06 06:31:21;;;;;;;5.38;3.20;;;;;;;21.24;57.60;101109.84;5037191;28;20052;-56
2023/05/06 06:33:49;;;;;;;4.55;3.40;;;;;;;21.26;57.65;101108.84;5035823;28;20052;-56
2023/05/06 06:36:16;;;;;;;6.43;3.38;;;;;;;21.26;57.79;101103.47;5037440;28;20061;-56
2023/05/06 06:38:43;;;;;;;3.95;2.78;;;;;;;21.26;57.72;101108.84;5035657;28;20049;-56
2023/05/06 06:41:11;;;;;;;5.20;2.80;;;;;;;21.26;57.80;101103.47;5037041;28;20056;-56
2023/05/06 06:43:38;;;;;;;4.75;2.88;;;;;;;21.27;57.70;101107.84;5037045;28;20072;-56
2023/05/06 06:46:18;;;;;;;4.10;3.08;;;;;;;21.27;57.65;101111.41;5037026;28;20049;-56
2023/05/06 06:48:46;;;;;;;5.22;3.17;;;;;;;21.26;57.74;101103.47;5036893;28;20045;-56
2023/05/06 06:51:14;;;;;;;4.15;3.28;;;;;;;21.27;57.75;101110.53;5036647;28;20048;-56
2023/05/06 06:53:41;;;;;;;3.92;3.30;;;;;;;21.26;57.80;101100.75;5035628;28;20049;-56
2023/05/06 06:56:12;;;;;;;4.65;3.42;;;;;;;21.27;57.75;101105.16;5036566;28;20053;-56
2023/05/06 06:58:40;;;;;;;3.83;3.03;;;;;;;21.27;57.84;101099.75;5037338;28;20060;-56
2023/05/06 07:01:08;;;;;;;4.13;2.80;;;;;;;21.27;57.79;101100.66;5036590;28;20053;-56
2023/05/06 07:03:36;;;;;;;5.35;2.85;;;;;;;21.27;57.75;101100.66;5036622;28;20053;-56
2023/05/06 07:06:03;;;;;;;7.75;3.22;;;;;;;21.28;57.70;101104.19;5036465;28;20052;-56
2023/05/06 07:08:30;;;;;;;6.35;2.90;;;;;;;21.28;57.83;101098.81;5036535;28;20049;-56
2023/05/06 07:10:58;;;;;;;3.80;3.15;;;;;;;21.29;57.77;101103.19;5036314;28;20052;-56
2023/05/06 07:13:25;;;;;;;4.47;3.20;;;;;;;21.29;57.80;101106.72;5036233;28;20054;-56
2023/05/06 07:15:52;;;;;;;5.30;3.15;;;;;;;21.30;57.79;101100.34;5036175;28;20049;-56
2023/05/06 07:18:20;;;;;;;5.28;3.08;;;;;;;21.32;57.77;101105.63;5036345;28;20049;-56
2023/05/06 07:20:47;;;;;;;5.50;3.38;;;;;;;21.32;57.78;101098.41;5035824;28;20056;-56
2023/05/06 07:23:15;;;;;;;5.03;3.97;;;;;;;21.34;57.68;101098.25;5036269;28;20049;-56
2023/05/06 07:25:42;;;;;;;4.20;2.90;;;;;;;21.36;57.81;101101.69;5034803;28;20380;-56
2023/05/06 07:28:09;;;;;;;7.22;3.60;;;;;;;;;;5036110;28;20061;-56
2023/05/06 07:30:37;;;;;;;4.78;3.13;;;;;;;;;;5036230;28;20381;-56
2023/05/06 07:33:04;;;;;;;5.32;3.38;;;;;;;21.37;57.67;101103.38;5035920;28;20046;-56
2023/05/06 07:35:32;;;;;;;4.45;3.05;;;;;;;21.38;57.63;101105.91;5035932;28;20049;-56
2023/05/06 07:37:59;;;;;;;8.38;3.22;;;;;;;21.38;57.70;101103.22;5036057;28;20072;-56
2023/05/06 07:40:26;;;;;;;5.55;3.42;;;;;;;21.39;57.65;101101.38;5036333;28;20049;-56
2023/05/06 07:42:54;;;;;;;3.92;3.08;;;;;;;21.40;57.69;101105.81;5035922;28;20048;-56
2023/05/06 07:45:23;;;;;;;7.45;2.97;;;;;;;21.40;57.82;101113.88;5035775;28;20049;-56
2023/05/06 07:47:50;;;;;;;4.25;3.50;;;;;;;21.41;57.81;101108.34;5035855;28;20052;-57
2023/05/06 07:50:18;;;;;;;4.93;3.72;;;;;;;21.41;57.72;101105.66;5035416;28;20049;-56
2023/05/06 07:52:45;;;;;;;3.28;2.60;;;;;;;21.43;57.74;101106.38;5035538;28;20068;-56
2023/05/06 07:55:13;;;;;;;4.95;3.15;;;;;;;21.45;57.77;101111.63;5035509;28;20049;-56
2023/05/06 07:57:40;;;;;;;3.83;2.90;;;;;;;21.44;57.70;101105.38;5035431;28;20048;-56
2023/05/06 08:00:08;;;;;;;4.13;2.95;;;;;;;21.44;57.75;101105.38;5035505;28;20388;-56
2023/05/06 08:02:42;;;;;;;5.22;3.45;;;;;;;21.45;57.81;101109.78;5042178;28;20049;-56
2023/05/06 08:05:12;;;;;;;3.75;2.67;;;;;;;21.47;57.79;101112.31;5035194;28;20048;-56
2023/05/06 08:07:41;;;;;;;4.75;2.38;;;;;;;21.48;57.76;101114.03;5033859;28;20053;-56
2023/05/06 08:10:09;;;;;;;5.10;3.25;;;;;;;21.47;57.74;101107.81;5035231;28;20056;-56
2023/05/06 08:12:36;;;;;;;3.90;3.03;;;;;;;21.49;57.85;101118.44;5035087;28;20049;-56
2023/05/06 08:15:04;;;;;;;4.22;3.40;;;;;;;21.49;57.79;101115.75;5035158;28;20058;-56
2023/05/06 08:17:32;;;;;;;4.38;2.63;;;;;;;21.50;57.75;101117.44;5035301;28;20507;-56
2023/05/06 08:19:59;;;;;;;3.65;2.90;;;;;;;21.53;57.80;101124.41;5035104;28;20049;-56
2023/05/06 08:22:26;;;;;;;4.38;2.80;;;;;;;21.54;57.82;101115.31;5034953;28;20050;-57
2023/05/06 08:24:54;;;;;;;7.18;4.80;;;;;;;21.54;56.70;101118.84;5052698;28;20055;-57
2023/05/06 08:27:21;;;;;;;6.43;4.63;;;;;;;21.52;56.83;101118.16;5044503;28;20494;-57
2023/05/06 08:29:49;;;;;;;5.03;4.25;;;;;;;21.53;56.73;101122.53;5048689;28;20056;-56
2023/05/06 08:32:16;;;;;;;4.25;3.42;;;;;;;21.53;57.04;101119.84;5053200;28;20048;-57
2023/05/06 08:34:43;;;;;;;4.88;3.60;;;;;;;21.55;57.48;101122.41;5037810;28;20041;-57
2023/05/06 08:37:10;;;;;;;5.80;3.95;;;;;;;21.56;57.43;101127.66;5034141;28;20056;-57
2023/05/06 08:39:38;;;;;;;5.47;3.75;;;;;;;21.58;57.77;101124.81;5034435;28;20475;-57
2023/05/06 08:42:10;;;;;;;5.95;3.83;;;;;;;21.61;57.67;101124.56;5034589;28;20361;-57
2023/05/06 08:44:37;;;;;;;5.15;3.28;;;;;;;21.61;57.78;101120.00;5034657;28;20045;-57
2023/05/06 08:47:05;;;;;;;5.10;3.28;;;;;;;21.63;57.48;101118.03;5033694;28;20049;-57
2023/05/06 08:49:32;;;;;;;4.78;3.65;;;;;;;21.65;57.68;101121.44;5034370;28;20049;-57
2023/05/06 08:52:03;;;;;;;5.68;3.38;;;;;;;21.66;57.73;101117.75;5033656;28;20068;-57
2023/05/06 08:54:34;;;;;;;5.20;3.70;;;;;;;21.68;57.88;101120.31;5033939;28;20052;-57
2023/05/06 08:57:04;;;;;;;7.90;4.07;;;;;;;21.69;57.85;101122.84;5034473;28;20057;-57
2023/05/06 08:59:32;;;;;;;4.22;3.20;;;;;;;21.70;57.77;101124.56;5032960;28;20046;-57
2023/05/06 09:02:00;;;;;;;4.18;3.60;;;;;;;21.73;57.86;101126.13;5040944;28;20037;-57
2023/05/06 09:04:28;;;;;;;5.43;4.05;;;;;;;21.76;57.84;101125.00;5043519;28;20060;-57
2023/05/06 09:06:59;;;;;;;4.70;4.10;;;;;;;21.77;57.87;101121.31;5033323;28;20049;-57
2023/05/06 09:09:26;;;;;;;12.13;4.53;;;;;;;21.78;57.79;101128.41;5032342;28;20049;-57
2023/05/06 09:11:56;;;;;;;9.35;4.70;;;;;;;21.78;57.94;101131.94;5047507;28;20052;-56
2023/05/06 09:14:24;;;;;;;5.13;4.53;;;;;;;21.80;58.02;101131.81;5053292;28;20067;-57
2023/05/06 09:16:51;;;;;;;7.90;4.53;;;;;;;21.82;57.97;101133.34;5053552;28;20052;-57
2023/05/06 09:19:22;;;;;;;10.88;4.88;;;;;;;21.83;58.04;101131.50;5053074;28;20049;-57
2023/05/06 09:21:50;;;;;;;5.80;4.45;;;;;;;21.83;57.77;101128.81;5047960;28;20399;-57
2023/05/06 09:24:19;;;;;;;5.88;4.15;;;;;;;21.82;58.07;101127.13;5042981;28;20058;-57
2023/05/06 09:26:46;;;;;;;4.93;4.32;;;;;;;21.83;58.06;101123.41;5038957;28;20041;-57
2023/05/06 09:29:14;;;;;;;6.15;4.50;;;;;;;21.81;58.11;101126.28;5032848;28;20049;-57
2023/05/06 09:31:45;;;;;;;7.32;4.80;;;;;;;21.82;58.06;101127.13;5033321;28;20049;-57
2023/05/06 09:34:14;;;;;;;7.53;4.30;;;;;;;21.82;57.97;101127.13;5049752;28;20041;-57
2023/05/06 09:36:42;;;;;;;7.55;5.28;;;;;;;21.82;57.98;101119.88;5032162;28;20041;-57
2023/05/06 09:39:09;;;;;;;6.97;4.80;;;;;;;21.82;57.91;101124.41;5033283;28;20049;-57
2023/05/06 09:41:37;;;;;;;6.30;4.72;;;;;;;21.82;57.93;101127.97;5038536;28;20041;-57
2023/05/06 09:44:04;;;;;;;5.78;4.75;;;;;;;21.83;57.93;101118.03;5043324;28;20491;-57
2023/05/06 09:46:32;;;;;;;5.80;4.78;;;;;;;21.84;57.97;101119.75;5033494;28;20052;-57
2023/05/06 09:49:00;;;;;;;6.68;4.95;;;;;;;21.83;57.99;101115.34;5049441;28;20054;-57
2023/05/06 09:51:29;;;;;;;5.05;4.38;;;;;;;21.85;58.04;101118.75;5053123;28;20497;-57
2023/05/06 09:53:59;;;;;;;4.97;4.25;;;;;;;21.85;58.11;101124.16;5053176;28;20467;-58
2023/05/06 09:56:29;;;;;;;5.38;4.30;;;;;;;21.85;58.03;101118.75;5052823;28;20056;-58
2023/05/06 09:59:00;;;;;;;4.68;3.80;;;;;;;21.84;57.98;101112.53;5052879;28;20064;-58
2023/05/06 10:01:29;;;;;;;5.30;4.43;;;;;;;21.86;57.89;101118.59;5052881;28;20045;-57
2023/05/06 10:04:07;;;;;;;6.97;4.65;;;;;;;21.86;57.92;101113.22;5053241;28;20037;-56
2023/05/06 10:06:38;;;;;;;6.22;4.22;;;;;;;21.87;58.04;101114.91;5052939;28;20055;-57
2023/05/06 10:09:09;;;;;;;5.97;4.15;;;;;;;21.87;58.01;101114.06;5053132;28;20045;-57
2023/05/06 10:11:37;;;;;;;6.30;4.55;;;;;;;21.87;57.78;101108.66;5051398;28;20399;-56
2023/05/06 10:14:05;;;;;;;5.82;4.78;;;;;;;21.88;57.90;101113.09;5052497;28;20049;-57
2023/05/06 10:16:34;;;;;;;5.93;4.88;;;;;;;21.89;58.06;101106.69;5052758;28;20045;-57
2023/05/06 10:19:05;;;;;;;7.10;5.50;;;;;;;21.89;58.01;101101.31;5041132;28;20049;-57
2023/05/06 10:21:36;;;;;;;5.65;4.72;;;;;;;21.91;57.87;101100.16;5032688;28;20053;-57
2023/05/06 10:24:06;;;;;;;5.43;4.53;;;;;;;21.91;57.79;101100.16;5033041;28;20045;-56
2023/05/06 10:26:36;;;;;;;6.15;4.63;;;;;;;21.92;57.85;101090.25;5032424;28;20124;-57
2023/05/06 10:29:09;;;;;;;7.07;4.57;;;;;;;21.93;57.94;101095.50;5032504;28;20426;-57
2023/05/06 10:31:43;;;;;;;7.38;4.60;;;;;;;21.94;57.60;101089.09;5033170;28;20500;-57
2023/05/06 10:34:11;;;;;;;5.75;4.63;;;;;;;21.94;58.00;101086.41;5036632;28;20400;-57
2023/05/06 10:36:41;;;;;;;5.82;4.22;;;;;;;21.95;57.71;101087.25;5031351;28;20037;-57
2023/05/06 10:39:12;;;;;;;5.35;4.30;;;;;;;21.95;58.06;101079.16;5032828;28;20052;-58
2023/05/06 10:41:39;;;;;;;5.85;4.78;;;;;;;21.96;58.83;101084.44;5032135;28;20064;-57
2023/05/06 10:44:08;;;;;;;6.70;4.85;;;;;;;21.96;58.91;101081.72;5032471;28;20046;-57
2023/05/06 10:46:56;;;;;;;5.50;4.53;;;;;;;21.95;58.32;101080.00;5032128;28;20056;-57
2023/05/06 10:49:24;;;;;;;8.93;5.32;;;;;;;21.97;58.58;101082.56;5032450;28;20041;-57
2023/05/06 10:52:11;;;;;;;5.38;4.68;;;;;;;21.98;58.95;101073.50;5031865;28;20057;-57
2023/05/06 10:54:50;;;;;;;8.32;4.22;;;;;;;21.98;58.83;101076.19;5031529;28;20042;-57
2023/05/06 10:57:20;;;;;;;6.00;3.85;;;;;;;21.98;58.64;101066.25;5036181;28;20061;-57
2023/05/06 10:59:48;;;;;;;4.53;3.63;;;;;;;21.98;58.50;101066.25;5036371;28;20049;-57
2023/05/06 11:02:19;;;;;;;4.72;4.03;;;;;;;21.99;58.47;101067.09;5036472;28;20060;-57
2023/05/06 11:04:51;;;;;;;6.32;3.53;;;;;;;21.98;58.48;101065.41;5036042;28;20041;-57
2023/05/06 11:07:23;;;;;;;7.03;4.35;;;;;;;21.99;58.92;101061.69;5035117;28;20053;-57
2023/05/06 11:09:59;;;;;;;5.25;4.70;;;;;;;21.98;58.58;101055.47;5035987;28;20045;-58
2023/05/06 11:12:47;;;;;;;5.28;4.13;;;;;;;22.00;58.63;101051.75;5036148;28;20056;-58
2023/05/06 11:15:34;;;;;;;5.85;4.00;;;;;;;21.99;59.06;101050.91;5034792;28;20045;-57
2023/05/06 11:18:20;;;;;;;6.20;4.07;;;;;;;21.99;58.73;101048.22;5035940;28;20050;-57
2023/05/06 11:20:49;;;;;;;4.60;3.63;;;;;;;21.99;58.79;101042.84;5035866;28;20045;-57
2023/05/06 11:23:20;;;;;;;4.07;3.20;;;;;;;21.98;58.72;101036.59;5034942;28;20046;-57
2023/05/06 11:25:47;;;;;;;5.03;3.28;;;;;;;21.99;58.93;101042.84;5035839;28;20052;-56
2023/05/06 11:28:15;;;;;;;5.20;3.72;;;;;;;22.01;58.54;101043.56;5035625;28;20049;-56
2023/05/06 11:30:52;;;;;;;5.32;3.58;;;;;;;22.02;58.79;101036.31;5035684;28;20041;-57
2023/05/06 11:33:22;;;;;;;5.43;3.20;;;;;;;22.02;58.72;101034.47;5035931;28;20045;-56
2023/05/06 11:35:50;;;;;;;5.72;3.30;;;;;;;22.01;58.61;101035.47;5035326;28;20057;-57